Białystok-Krywlany Airport

EPBK · Podlachie, Pologne

METAR anciennes EPBK · Białystok-Krywlany Airport

Tu vois ci-dessous les METAR des derniers jours. Sélectionne une année pour parcourir les METAR plus anciens, à partir de l'année 2007.

19 juillet 2024

Temps Code Temps Temp. Vue Base cloud Vent METAR/SPECI
15:00
V
24 °C 10 km+ 4.000 ft 300° 300° 9 - 15 kt METAR UMMG 191300Z 30005G08MPS 9999 BKN040 BKN100 24/12 Q1019 NOSIG
14:00
V
24 °C 10 km+ 3.600 ft 290° 290° 9 - 15 kt METAR UMMG 191200Z 29005G08MPS 9999 BKN036 BKN100 24/12 Q1019 NOSIG
13:00
V
23 °C 10 km+ 3.600 ft 290° 290° 9 - 15 kt METAR UMMG 191100Z 29005G08MPS 9999 BKN036 23/12 Q1019 NOSIG
12:00
V
23 °C 10 km+ 3.300 ft 290° 290° 7 - 13 kt METAR UMMG 191000Z 29004G07MPS 9999 BKN033 23/12 Q1020 NOSIG
11:00
M
22 °C 10 km+ 2.800 ft 300° 300° 9 - 15 kt METAR UMMG 190900Z 30005G08MPS 9999 BKN028 22/13 Q1020 NOSIG
10:00
M
20 °C 10 km+ 2.400 ft 300° 300° 7 - 13 kt METAR UMMG 190800Z 30004G07MPS 9999 BKN024 20/13 Q1020 NOSIG
09:00
M
19 °C 10 km+ 2.100 ft 300° 300° 7 - 13 kt METAR UMMG 190700Z 30004G07MPS 9999 BKN021 19/13 Q1021 NOSIG
08:00
M
18 °C 10 km+ 1.700 ft 300° 300° 5 kt METAR UMMG 190600Z 30003MPS 9999 BKN017 18/14 Q1021 NOSIG
07:00
V
17 °C 10 km+ - 300° 300° 5 kt METAR UMMG 190500Z 30003MPS 9999 FEW010 17/15 Q1021 NOSIG
06:00
V
15 °C 9 km - 290° 290° 3 kt METAR UMMG 190400Z 29002MPS 9000 FEW010 15/14 Q1021 NOSIG
05:00
V
14 °C 8 km - 280° 280° 3 kt METAR UMMG 190300Z 28002MPS 8000 MIFG NSC 14/13 Q1020 NOSIG

18 juillet 2024

Temps Code Temps Temp. Vue Base cloud Vent METAR/SPECI
15:00
V
27 °C 10 km+ - 290° 290° 11 - 19 kt METAR UMMG 181300Z 29006G10MPS 9999 SCT040 27/12 Q1019 NOSIG
14:00
V
26 °C 10 km+ - 320° 320° 11 - 19 kt METAR UMMG 181200Z 32006G10MPS 9999 SCT040 26/13 Q1019 NOSIG
13:00
V
26 °C 10 km+ - 280° 280° 9 - 15 kt METAR UMMG 181100Z 28005G08MPS 9999 SCT040 26/15 Q1019 NOSIG
12:45
V
25 °C 10 km+ - 280° 280° 9 - 15 kt METAR UMMG 181045Z 28005G08MPS 9999 SCT036 25/15 Q1019 NOSIG
12:00
V
25 °C 10 km+ - 290° 290° 7 kt METAR UMMG 181000Z 29004MPS 9999 SCT036 25/15 Q1019 NOSIG
11:00
V
24 °C 10 km+ 3.300 ft 360° 360° 5 kt METAR UMMG 180900Z 36003MPS 9999 BKN033 24/16 Q1019 NOSIG
10:00
V
24 °C 10 km+ 6.600 ft 340° 340° 3 kt METAR UMMG 180800Z 34002MPS 9999 SCT030 BKN066 24/15 Q1019 NOSIG
09:00
V
24 °C 10 km+ - Var Var 1 kt METAR UMMG 180700Z VRB01MPS CAVOK 24/15 Q1019 NOSIG
08:00
V
22 °C 10 km+ - 060° 060° 3 kt METAR UMMG 180600Z 06002MPS CAVOK 22/17 Q1019 NOSIG
07:00
V
20 °C 10 km+ 6.600 ft 320° 320° 1 kt METAR UMMG 180500Z 32001MPS 9999 FEW036 BKN066 20/19 Q1019 NOSIG
06:00
V
19 °C 10 km+ 6.600 ft 310° 310° 3 kt METAR UMMG 180400Z 31002MPS 9999 SCT033 BKN066 19/18 Q1018 NOSIG
05:00
V
19 °C 9 km 6.600 ft 310° 310° 5 kt METAR UMMG 180300Z 31003MPS 9000 -SHRA SCT033CB BKN066 19/18 Q1018 NOSIG

17 juillet 2024

Temps Code Temps Temp. Vue Base cloud Vent METAR/SPECI
15:00
V
30 °C 10 km+ 10.000 ft 300° 300° 5 kt METAR UMMG 171300Z 30003MPS 9999 SCT036 BKN100 30/15 Q1016 NOSIG
14:00
V
29 °C 10 km+ 10.000 ft 300° 300° 7 - 13 kt METAR UMMG 171200Z 30004G07MPS 9999 SCT033 BKN100 29/16 Q1016 NOSIG
13:00
V
28 °C 10 km+ 10.000 ft 300° 300° 5 kt METAR UMMG 171100Z 30003MPS 9999 SCT030 BKN100 28/18 Q1016 NOSIG
12:00
V
27 °C 10 km+ 10.000 ft 300° 300° 5 - 11 kt METAR UMMG 171000Z 30003G06MPS 9999 SCT026 BKN100 27/17 Q1016 NOSIG
11:00
V
27 °C 10 km+ 10.000 ft 300° 300° 5 - 11 kt METAR UMMG 170900Z 30003G06MPS 9999 SCT023 BKN100 27/18 Q1016 NOSIG
10:00
M
25 °C 10 km+ 2.100 ft 300° 300° 7 - 13 kt METAR UMMG 170800Z 30004G07MPS 9999 BKN021 25/20 Q1016 NOSIG
09:00
M
24 °C 10 km+ 1.600 ft 260° 260° 5 kt METAR UMMG 170700Z 26003MPS 9999 BKN016 24/20 Q1016 NOSIG
08:00
M
22 °C 10 km+ 1.500 ft 260° 260° 5 kt METAR UMMG 170600Z 26003MPS 9999 BKN015 BKN017 22/19 Q1015 NOSIG
Signaler les modifications